sensor_id;sensor_type;location;lat;lon;timestamp;pressure;altitude;pressure_sealevel;temperature;humidity
77603;BME280;66771;52.434;17.056;2023-04-24T00:01:06;99607.90;;;10.46;80.80
77603;BME280;66771;52.434;17.056;2023-04-24T00:03:34;99608.67;;;10.46;80.85
77603;BME280;66771;52.434;17.056;2023-04-24T00:06:01;99607.95;;;10.46;80.88
77603;BME280;66771;52.434;17.056;2023-04-24T00:08:29;99606.73;;;10.45;80.78
77603;BME280;66771;52.434;17.056;2023-04-24T00:10:56;99603.87;;;10.43;80.83
77603;BME280;66771;52.434;17.056;2023-04-24T00:13:23;99602.55;;;10.42;81.02
77603;BME280;66771;52.434;17.056;2023-04-24T00:15:50;99588.45;;;10.37;81.28
77603;BME280;66771;52.434;17.056;2023-04-24T00:18:17;99599.38;;;10.53;81.65
77603;BME280;66771;52.434;17.056;2023-04-24T00:20:43;99595.39;;;10.61;81.37
77603;BME280;66771;52.434;17.056;2023-04-24T00:23:12;99596.98;;;10.64;81.25
77603;BME280;66771;52.434;17.056;2023-04-24T00:25:39;99595.75;;;10.69;81.33
77603;BME280;66771;52.434;17.056;2023-04-24T00:28:06;99598.38;;;10.73;81.25
77603;BME280;66771;52.434;17.056;2023-04-24T00:30:33;99599.20;;;10.72;81.17
77603;BME280;66771;52.434;17.056;2023-04-24T00:32:59;99596.67;;;10.70;81.22
77603;BME280;66771;52.434;17.056;2023-04-24T00:35:26;99595.02;;;10.76;81.25
77603;BME280;66771;52.434;17.056;2023-04-24T00:37:53;99592.34;;;10.78;81.31
77603;BME280;66771;52.434;17.056;2023-04-24T00:40:20;99584.09;;;10.74;81.10
77603;BME280;66771;52.434;17.056;2023-04-24T00:42:47;99583.48;;;10.71;81.14
77603;BME280;66771;52.434;17.056;2023-04-24T00:45:14;99580.27;;;10.71;81.28
77603;BME280;66771;52.434;17.056;2023-04-24T00:47:41;99576.59;;;10.75;81.54
77603;BME280;66771;52.434;17.056;2023-04-24T00:50:09;99579.84;;;10.79;81.44
77603;BME280;66771;52.434;17.056;2023-04-24T00:52:36;99573.27;;;10.74;81.35
77603;BME280;66771;52.434;17.056;2023-04-24T00:55:03;99577.62;;;10.72;81.45
77603;BME280;66771;52.434;17.056;2023-04-24T00:57:30;99577.73;;;10.73;81.52
77603;BME280;66771;52.434;17.056;2023-04-24T00:59:57;99575.77;;;10.75;81.64
77603;BME280;66771;52.434;17.056;2023-04-24T01:02:24;99573.99;;;10.78;81.60
77603;BME280;66771;52.434;17.056;2023-04-24T01:04:51;99575.31;;;10.83;81.85
77603;BME280;66771;52.434;17.056;2023-04-24T01:07:22;99574.38;;;10.91;81.99
77603;BME280;66771;52.434;17.056;2023-04-24T01:09:49;99577.29;;;10.96;81.95
77603;BME280;66771;52.434;17.056;2023-04-24T01:12:19;99577.67;;;11.06;81.86
77603;BME280;66771;52.434;17.056;2023-04-24T01:14:46;99575.84;;;11.11;81.95
77603;BME280;66771;52.434;17.056;2023-04-24T01:17:15;99569.08;;;11.11;81.57
77603;BME280;66771;52.434;17.056;2023-04-24T01:19:42;99563.77;;;11.00;81.48
77603;BME280;66771;52.434;17.056;2023-04-24T01:22:15;99558.13;;;10.89;81.94
77603;BME280;66771;52.434;17.056;2023-04-24T01:24:43;99550.51;;;10.83;82.00
77603;BME280;66771;52.434;17.056;2023-04-24T01:27:12;99551.46;;;10.78;82.01
77603;BME280;66771;52.434;17.056;2023-04-24T01:29:39;99553.16;;;10.82;82.36
77603;BME280;66771;52.434;17.056;2023-04-24T01:32:06;99554.28;;;10.87;82.55
77603;BME280;66771;52.434;17.056;2023-04-24T01:34:33;99556.34;;;10.89;82.77
77603;BME280;66771;52.434;17.056;2023-04-24T01:37:01;99555.52;;;10.94;82.75
77603;BME280;66771;52.434;17.056;2023-04-24T01:39:28;99550.60;;;10.89;82.50
77603;BME280;66771;52.434;17.056;2023-04-24T01:41:56;99550.71;;;10.83;82.28
77603;BME280;66771;52.434;17.056;2023-04-24T01:44:26;99549.04;;;10.79;82.53
77603;BME280;66771;52.434;17.056;2023-04-24T01:46:56;99549.95;;;10.79;82.70
77603;BME280;66771;52.434;17.056;2023-04-24T01:49:24;99553.60;;;10.84;82.87
77603;BME280;66771;52.434;17.056;2023-04-24T01:51:51;99556.75;;;10.89;82.76
77603;BME280;66771;52.434;17.056;2023-04-24T01:54:18;99558.48;;;10.88;82.55
77603;BME280;66771;52.434;17.056;2023-04-24T01:56:46;99564.38;;;10.83;82.51
77603;BME280;66771;52.434;17.056;2023-04-24T01:59:15;99562.67;;;10.80;82.82
77603;BME280;66771;52.434;17.056;2023-04-24T02:01:43;99556.35;;;10.80;82.90
77603;BME280;66771;52.434;17.056;2023-04-24T02:04:10;99555.98;;;10.82;83.08
77603;BME280;66771;52.434;17.056;2023-04-24T02:06:37;99556.91;;;10.89;83.33
77603;BME280;66771;52.434;17.056;2023-04-24T02:09:03;99554.89;;;10.97;83.44
77603;BME280;66771;52.434;17.056;2023-04-24T02:11:30;99558.70;;;11.05;83.67
77603;BME280;66771;52.434;17.056;2023-04-24T02:13:57;99555.16;;;11.09;83.59
77603;BME280;66771;52.434;17.056;2023-04-24T02:16:24;99547.86;;;11.10;83.41
77603;BME280;66771;52.434;17.056;2023-04-24T02:18:51;99541.42;;;11.12;83.46
77603;BME280;66771;52.434;17.056;2023-04-24T02:21:18;99536.95;;;11.17;83.61
77603;BME280;66771;52.434;17.056;2023-04-24T02:23:45;99534.46;;;11.17;83.78
77603;BME280;66771;52.434;17.056;2023-04-24T02:26:13;99533.62;;;11.14;84.00
77603;BME280;66771;52.434;17.056;2023-04-24T02:28:40;99525.52;;;11.11;84.00
77603;BME280;66771;52.434;17.056;2023-04-24T02:31:07;99521.30;;;11.09;84.25
77603;BME280;66771;52.434;17.056;2023-04-24T02:33:33;99519.91;;;11.09;84.46
77603;BME280;66771;52.434;17.056;2023-04-24T02:36:01;99512.27;;;11.08;84.46
77603;BME280;66771;52.434;17.056;2023-04-24T02:38:29;99502.48;;;11.07;84.46
77603;BME280;66771;52.434;17.056;2023-04-24T02:40:56;99497.64;;;11.03;84.44
77603;BME280;66771;52.434;17.056;2023-04-24T02:43:26;99492.48;;;11.01;84.55
77603;BME280;66771;52.434;17.056;2023-04-24T02:45:53;99482.46;;;11.00;84.71
77603;BME280;66771;52.434;17.056;2023-04-24T02:48:23;99486.33;;;11.01;84.71
77603;BME280;66771;52.434;17.056;2023-04-24T02:50:53;99487.39;;;11.03;84.85
77603;BME280;66771;52.434;17.056;2023-04-24T02:53:20;99493.27;;;11.04;84.76
77603;BME280;66771;52.434;17.056;2023-04-24T02:55:47;99495.11;;;11.07;84.70
77603;BME280;66771;52.434;17.056;2023-04-24T02:58:14;99490.81;;;11.07;84.55
77603;BME280;66771;52.434;17.056;2023-04-24T03:00:43;99489.20;;;11.08;84.77
77603;BME280;66771;52.434;17.056;2023-04-24T03:03:11;99486.56;;;11.15;85.05
77603;BME280;66771;52.434;17.056;2023-04-24T03:05:46;99486.13;;;11.17;84.73
77603;BME280;66771;52.434;17.056;2023-04-24T03:08:13;99480.64;;;11.18;84.74
77603;BME280;66771;52.434;17.056;2023-04-24T03:10:43;99479.84;;;11.23;84.63
77603;BME280;66771;52.434;17.056;2023-04-24T03:13:10;99475.61;;;11.16;84.44
77603;BME280;66771;52.434;17.056;2023-04-24T03:15:37;99475.48;;;11.14;84.44
77603;BME280;66771;52.434;17.056;2023-04-24T03:18:03;99470.22;;;11.11;84.39
77603;BME280;66771;52.434;17.056;2023-04-24T03:20:30;99465.83;;;11.10;84.35
77603;BME280;66771;52.434;17.056;2023-04-24T03:22:58;99469.06;;;11.15;84.82
77603;BME280;66771;52.434;17.056;2023-04-24T03:25:28;99466.63;;;11.22;84.74
77603;BME280;66771;52.434;17.056;2023-04-24T03:27:55;99467.65;;;11.22;84.61
77603;BME280;66771;52.434;17.056;2023-04-24T03:30:38;99463.95;;;11.20;84.70
77603;BME280;66771;52.434;17.056;2023-04-24T03:33:06;99463.90;;;11.20;84.45
77603;BME280;66771;52.434;17.056;2023-04-24T03:35:35;99455.54;;;11.17;84.41
77603;BME280;66771;52.434;17.056;2023-04-24T03:38:05;99454.20;;;11.16;84.43
77603;BME280;66771;52.434;17.056;2023-04-24T03:40:44;99453.09;;;11.13;84.40
77603;BME280;66771;52.434;17.056;2023-04-24T03:43:32;99452.34;;;11.11;84.34
77603;BME280;66771;52.434;17.056;2023-04-24T03:46:01;99447.27;;;11.08;84.31
77603;BME280;66771;52.434;17.056;2023-04-24T03:48:29;99445.02;;;11.04;84.31
77603;BME280;66771;52.434;17.056;2023-04-24T03:50:56;99443.95;;;11.02;84.49
77603;BME280;66771;52.434;17.056;2023-04-24T03:53:24;99444.46;;;11.00;84.75
77603;BME280;66771;52.434;17.056;2023-04-24T03:55:54;99440.94;;;10.97;84.72
77603;BME280;66771;52.434;17.056;2023-04-24T03:58:21;99438.29;;;10.93;84.69
77603;BME280;66771;52.434;17.056;2023-04-24T04:00:49;99428.97;;;10.91;84.83
77603;BME280;66771;52.434;17.056;2023-04-24T04:03:37;99424.48;;;10.91;84.83
77603;BME280;66771;52.434;17.056;2023-04-24T04:06:07;99414.36;;;10.87;84.84
77603;BME280;66771;52.434;17.056;2023-04-24T04:08:34;99415.79;;;10.91;84.70
77603;BME280;66771;52.434;17.056;2023-04-24T04:11:02;99409.63;;;10.92;84.65
77603;BME280;66771;52.434;17.056;2023-04-24T04:13:29;99408.83;;;10.91;84.59
77603;BME280;66771;52.434;17.056;2023-04-24T04:15:56;99411.40;;;10.85;84.39
77603;BME280;66771;52.434;17.056;2023-04-24T04:18:24;99428.23;;;10.86;84.67
77603;BME280;66771;52.434;17.056;2023-04-24T04:20:51;99432.77;;;10.87;84.69
77603;BME280;66771;52.434;17.056;2023-04-24T04:23:18;99433.67;;;10.83;84.47
77603;BME280;66771;52.434;17.056;2023-04-24T04:26:17;99437.40;;;10.73;84.21
77603;BME280;66771;52.434;17.056;2023-04-24T04:29:01;99438.98;;;10.66;84.36
77603;BME280;66771;52.434;17.056;2023-04-24T04:31:29;99440.44;;;10.66;84.39
77603;BME280;66771;52.434;17.056;2023-04-24T04:34:01;99438.28;;;10.66;84.37
77603;BME280;66771;52.434;17.056;2023-04-24T04:36:33;99441.27;;;10.70;84.58
77603;BME280;66771;52.434;17.056;2023-04-24T04:39:12;99443.84;;;10.79;85.00
77603;BME280;66771;52.434;17.056;2023-04-24T04:41:46;99438.95;;;10.85;84.88
77603;BME280;66771;52.434;17.056;2023-04-24T04:44:19;99435.73;;;10.93;85.04
77603;BME280;66771;52.434;17.056;2023-04-24T04:46:46;99431.98;;;11.04;84.93
77603;BME280;66771;52.434;17.056;2023-04-24T04:49:28;99423.84;;;11.10;85.01
77603;BME280;66771;52.434;17.056;2023-04-24T04:51:58;99421.91;;;11.15;84.84
77603;BME280;66771;52.434;17.056;2023-04-24T04:54:26;99415.33;;;11.20;84.72
77603;BME280;66771;52.434;17.056;2023-04-24T04:56:53;99413.02;;;11.25;84.77
77603;BME280;66771;52.434;17.056;2023-04-24T04:59:21;99413.42;;;11.28;84.78
77603;BME280;66771;52.434;17.056;2023-04-24T05:01:49;99398.52;;;11.26;84.50
77603;BME280;66771;52.434;17.056;2023-04-24T05:04:25;99413.86;;;11.34;84.54
77603;BME280;66771;52.434;17.056;2023-04-24T05:06:52;99412.13;;;11.37;84.49
77603;BME280;66771;52.434;17.056;2023-04-24T05:12:02;99422.11;;;11.49;84.48
77603;BME280;66771;52.434;17.056;2023-04-24T05:14:30;99424.45;;;11.55;84.35
77603;BME280;66771;52.434;17.056;2023-04-24T05:16:57;99423.88;;;11.58;84.38
77603;BME280;66771;52.434;17.056;2023-04-24T05:19:28;99423.11;;;11.62;84.25
77603;BME280;66771;52.434;17.056;2023-04-24T05:21:55;99422.48;;;11.69;84.36
77603;BME280;66771;52.434;17.056;2023-04-24T05:24:22;99419.29;;;11.74;84.20
77603;BME280;66771;52.434;17.056;2023-04-24T05:27:06;99421.60;;;11.83;84.24
77603;BME280;66771;52.434;17.056;2023-04-24T05:29:39;99419.45;;;11.90;84.10
77603;BME280;66771;52.434;17.056;2023-04-24T05:32:09;99420.70;;;11.99;84.17
77603;BME280;66771;52.434;17.056;2023-04-24T05:34:37;99417.48;;;12.07;83.99
77603;BME280;66771;52.434;17.056;2023-04-24T05:37:04;99416.05;;;12.16;83.93
77603;BME280;66771;52.434;17.056;2023-04-24T05:39:37;99411.81;;;12.25;83.74
77603;BME280;66771;52.434;17.056;2023-04-24T05:42:04;99410.98;;;12.33;83.47
77603;BME280;66771;52.434;17.056;2023-04-24T05:44:32;99411.79;;;12.43;83.35
77603;BME280;66771;52.434;17.056;2023-04-24T05:46:59;99408.00;;;12.51;83.37
77603;BME280;66771;52.434;17.056;2023-04-24T05:49:27;99408.24;;;12.66;83.47
77603;BME280;66771;52.434;17.056;2023-04-24T05:51:54;99406.20;;;12.77;83.05
77603;BME280;66771;52.434;17.056;2023-04-24T05:54:22;99405.67;;;12.95;83.13
77603;BME280;66771;52.434;17.056;2023-04-24T05:56:49;99408.42;;;13.19;82.77
77603;BME280;66771;52.434;17.056;2023-04-24T05:59:22;99403.76;;;13.37;82.42
77603;BME280;66771;52.434;17.056;2023-04-24T06:01:51;99405.17;;;13.44;82.04
77603;BME280;66771;52.434;17.056;2023-04-24T06:04:19;99407.11;;;13.51;81.50
77603;BME280;66771;52.434;17.056;2023-04-24T06:06:46;99410.96;;;13.57;81.56
77603;BME280;66771;52.434;17.056;2023-04-24T06:09:18;99412.02;;;13.64;81.51
77603;BME280;66771;52.434;17.056;2023-04-24T06:11:44;99415.00;;;13.73;81.29
77603;BME280;66771;52.434;17.056;2023-04-24T06:14:14;99413.04;;;13.81;81.23
77603;BME280;66771;52.434;17.056;2023-04-24T06:17:00;99409.14;;;13.93;80.87
77603;BME280;66771;52.434;17.056;2023-04-24T06:19:39;99404.63;;;14.00;80.63
77603;BME280;66771;52.434;17.056;2023-04-24T06:22:06;99403.92;;;14.12;80.01
77603;BME280;66771;52.434;17.056;2023-04-24T06:24:42;99406.68;;;14.23;79.79
77603;BME280;66771;52.434;17.056;2023-04-24T06:27:09;99405.60;;;14.31;79.04
77603;BME280;66771;52.434;17.056;2023-04-24T06:29:36;99408.65;;;14.33;79.27
77603;BME280;66771;52.434;17.056;2023-04-24T06:32:03;99404.70;;;14.33;78.78
77603;BME280;66771;52.434;17.056;2023-04-24T06:34:30;99407.05;;;14.33;79.25
77603;BME280;66771;52.434;17.056;2023-04-24T06:37:01;99408.93;;;14.35;78.77
77603;BME280;66771;52.434;17.056;2023-04-24T06:39:28;99406.33;;;14.34;78.70
77603;BME280;66771;52.434;17.056;2023-04-24T06:42:03;99407.31;;;14.34;78.54
77603;BME280;66771;52.434;17.056;2023-04-24T06:44:32;99410.47;;;14.31;78.77
77603;BME280;66771;52.434;17.056;2023-04-24T06:47:01;99411.70;;;14.33;78.65
77603;BME280;66771;52.434;17.056;2023-04-24T06:49:28;99408.05;;;14.37;78.61
77603;BME280;66771;52.434;17.056;2023-04-24T06:52:05;99407.77;;;14.41;78.19
77603;BME280;66771;52.434;17.056;2023-04-24T06:54:35;99406.60;;;14.46;78.11
77603;BME280;66771;52.434;17.056;2023-04-24T06:57:02;99405.35;;;14.53;78.08
77603;BME280;66771;52.434;17.056;2023-04-24T06:59:29;99407.99;;;14.60;77.67
77603;BME280;66771;52.434;17.056;2023-04-24T07:01:57;99406.54;;;14.65;77.84
77603;BME280;66771;52.434;17.056;2023-04-24T07:04:24;99407.89;;;14.67;77.32
77603;BME280;66771;52.434;17.056;2023-04-24T07:06:51;99409.10;;;14.71;76.98
77603;BME280;66771;52.434;17.056;2023-04-24T07:09:21;99409.92;;;14.72;76.87
77603;BME280;66771;52.434;17.056;2023-04-24T07:11:48;99409.41;;;14.70;76.59
77603;BME280;66771;52.434;17.056;2023-04-24T07:14:15;99408.80;;;14.72;76.27
77603;BME280;66771;52.434;17.056;2023-04-24T07:16:45;99406.89;;;14.84;75.73
77603;BME280;66771;52.434;17.056;2023-04-24T07:19:13;99411.13;;;15.03;75.11
77603;BME280;66771;52.434;17.056;2023-04-24T07:21:46;99407.02;;;15.34;75.31
77603;BME280;66771;52.434;17.056;2023-04-24T07:24:13;99405.38;;;15.76;75.14
77603;BME280;66771;52.434;17.056;2023-04-24T07:26:39;99400.14;;;16.03;74.50
77603;BME280;66771;52.434;17.056;2023-04-24T07:29:07;99405.17;;;16.18;73.88
77603;BME280;66771;52.434;17.056;2023-04-24T07:31:34;99407.28;;;16.25;71.72
77603;BME280;66771;52.434;17.056;2023-04-24T07:34:01;99410.95;;;16.19;71.71
77603;BME280;66771;52.434;17.056;2023-04-24T07:36:28;99408.49;;;16.23;72.02
77603;BME280;66771;52.434;17.056;2023-04-24T07:38:55;99409.73;;;16.23;70.79
77603;BME280;66771;52.434;17.056;2023-04-24T07:41:23;99403.61;;;16.31;70.56
77603;BME280;66771;52.434;17.056;2023-04-24T07:43:51;99401.48;;;16.52;69.60
77603;BME280;66771;52.434;17.056;2023-04-24T07:46:20;99396.07;;;16.74;69.31
77603;BME280;66771;52.434;17.056;2023-04-24T07:48:47;99391.31;;;16.98;68.37
77603;BME280;66771;52.434;17.056;2023-04-24T07:51:14;99394.99;;;17.21;68.41
77603;BME280;66771;52.434;17.056;2023-04-24T07:53:42;99403.05;;;17.32;68.13
77603;BME280;66771;52.434;17.056;2023-04-24T07:56:09;99405.58;;;17.37;68.94
77603;BME280;66771;52.434;17.056;2023-04-24T07:58:37;99406.05;;;17.37;68.18
77603;BME280;66771;52.434;17.056;2023-04-24T08:01:04;99408.61;;;17.34;67.57
77603;BME280;66771;52.434;17.056;2023-04-24T08:03:31;99403.23;;;17.33;67.07
77603;BME280;66771;52.434;17.056;2023-04-24T08:05:58;99397.00;;;17.31;66.47
77603;BME280;66771;52.434;17.056;2023-04-24T08:08:25;99408.86;;;17.38;66.07
77603;BME280;66771;52.434;17.056;2023-04-24T08:10:54;99413.99;;;17.42;64.99
77603;BME280;66771;52.434;17.056;2023-04-24T08:13:22;99408.40;;;17.46;65.52
77603;BME280;66771;52.434;17.056;2023-04-24T08:15:49;99413.52;;;17.57;65.05
77603;BME280;66771;52.434;17.056;2023-04-24T08:18:16;99407.27;;;17.60;65.67
77603;BME280;66771;52.434;17.056;2023-04-24T08:20:43;99410.62;;;17.74;66.34
77603;BME280;66771;52.434;17.056;2023-04-24T08:23:12;99413.59;;;17.87;65.73
77603;BME280;66771;52.434;17.056;2023-04-24T08:25:39;99408.79;;;17.83;64.02
77603;BME280;66771;52.434;17.056;2023-04-24T08:28:08;99410.41;;;17.77;64.68
77603;BME280;66771;52.434;17.056;2023-04-24T08:30:35;99407.05;;;17.74;63.74
77603;BME280;66771;52.434;17.056;2023-04-24T08:33:02;99413.65;;;17.62;62.73
77603;BME280;66771;52.434;17.056;2023-04-24T08:35:29;99415.15;;;17.53;63.52
77603;BME280;66771;52.434;17.056;2023-04-24T08:37:56;99418.39;;;17.53;64.14
77603;BME280;66771;52.434;17.056;2023-04-24T08:40:28;99414.38;;;17.63;64.87
77603;BME280;66771;52.434;17.056;2023-04-24T08:42:57;99414.90;;;17.69;64.89
77603;BME280;66771;52.434;17.056;2023-04-24T08:45:24;99411.02;;;17.72;65.10
77603;BME280;66771;52.434;17.056;2023-04-24T08:47:53;99412.13;;;17.69;64.36
77603;BME280;66771;52.434;17.056;2023-04-24T08:50:25;99410.61;;;17.73;64.47
77603;BME280;66771;52.434;17.056;2023-04-24T08:52:52;99411.31;;;17.72;64.10
77603;BME280;66771;52.434;17.056;2023-04-24T08:55:20;99419.00;;;17.55;62.90
77603;BME280;66771;52.434;17.056;2023-04-24T08:57:59;99409.52;;;17.25;62.96
77603;BME280;66771;52.434;17.056;2023-04-24T09:00:27;99416.44;;;17.05;63.74
77603;BME280;66771;52.434;17.056;2023-04-24T09:02:55;99415.84;;;16.97;64.72
77603;BME280;66771;52.434;17.056;2023-04-24T09:05:23;99418.60;;;16.90;64.53
77603;BME280;66771;52.434;17.056;2023-04-24T09:07:55;99417.05;;;16.78;64.43
77603;BME280;66771;52.434;17.056;2023-04-24T09:10:25;99417.23;;;16.79;64.78
77603;BME280;66771;52.434;17.056;2023-04-24T09:12:53;99414.64;;;16.96;65.03
77603;BME280;66771;52.434;17.056;2023-04-24T09:15:20;99409.80;;;17.20;65.17
77603;BME280;66771;52.434;17.056;2023-04-24T09:17:47;99414.33;;;17.39;64.14
77603;BME280;66771;52.434;17.056;2023-04-24T09:20:15;99416.02;;;17.43;62.95
77603;BME280;66771;52.434;17.056;2023-04-24T09:22:57;99421.32;;;17.44;63.23
77603;BME280;66771;52.434;17.056;2023-04-24T09:25:32;99419.67;;;17.55;63.26
77603;BME280;66771;52.434;17.056;2023-04-24T09:28:02;99421.04;;;17.78;63.67
77603;BME280;66771;52.434;17.056;2023-04-24T09:30:29;99418.52;;;17.99;63.61
77603;BME280;66771;52.434;17.056;2023-04-24T09:33:26;99417.63;;;18.23;62.81
77603;BME280;66771;52.434;17.056;2023-04-24T09:35:53;99413.73;;;18.67;60.79
77603;BME280;66771;52.434;17.056;2023-04-24T09:38:33;99417.10;;;18.69;60.25
77603;BME280;66771;52.434;17.056;2023-04-24T09:41:02;99418.41;;;18.69;61.46
77603;BME280;66771;52.434;17.056;2023-04-24T09:43:30;99424.11;;;18.91;60.97
77603;BME280;66771;52.434;17.056;2023-04-24T09:45:58;99422.55;;;19.30;60.27
77603;BME280;66771;52.434;17.056;2023-04-24T09:48:39;99421.45;;;19.64;60.59
77603;BME280;66771;52.434;17.056;2023-04-24T09:51:07;99415.77;;;19.82;59.98
77603;BME280;66771;52.434;17.056;2023-04-24T09:53:37;99409.39;;;19.74;58.95
77603;BME280;66771;52.434;17.056;2023-04-24T09:56:09;99413.36;;;19.62;58.90
77603;BME280;66771;52.434;17.056;2023-04-24T09:58:36;99414.98;;;19.58;59.03
77603;BME280;66771;52.434;17.056;2023-04-24T10:01:03;99410.09;;;19.73;60.26
77603;BME280;66771;52.434;17.056;2023-04-24T10:03:32;99410.34;;;19.98;60.01
77603;BME280;66771;52.434;17.056;2023-04-24T10:06:01;99406.01;;;20.15;59.68
77603;BME280;66771;52.434;17.056;2023-04-24T10:08:35;99410.64;;;20.25;58.78
77603;BME280;66771;52.434;17.056;2023-04-24T10:11:02;99405.19;;;20.41;58.56
77603;BME280;66771;52.434;17.056;2023-04-24T10:13:32;99406.36;;;20.42;57.85
77603;BME280;66771;52.434;17.056;2023-04-24T10:16:03;99405.27;;;20.37;58.13
77603;BME280;66771;52.434;17.056;2023-04-24T10:18:30;99402.50;;;20.31;57.91
77603;BME280;66771;52.434;17.056;2023-04-24T10:21:00;99405.20;;;20.10;57.07
77603;BME280;66771;52.434;17.056;2023-04-24T10:23:35;99406.09;;;20.08;58.05
77603;BME280;66771;52.434;17.056;2023-04-24T10:26:02;99401.41;;;20.23;57.76
77603;BME280;66771;52.434;17.056;2023-04-24T10:28:31;99404.67;;;20.40;56.38
77603;BME280;66771;52.434;17.056;2023-04-24T10:30:58;99403.27;;;20.52;55.94
77603;BME280;66771;52.434;17.056;2023-04-24T10:33:26;99409.09;;;20.67;55.23
77603;BME280;66771;52.434;17.056;2023-04-24T10:35:54;99405.75;;;20.69;54.24
77603;BME280;66771;52.434;17.056;2023-04-24T10:38:25;99408.25;;;20.82;55.69
77603;BME280;66771;52.434;17.056;2023-04-24T10:41:09;99413.21;;;20.84;53.43
77603;BME280;66771;52.434;17.056;2023-04-24T10:43:40;99410.35;;;20.64;53.28
77603;BME280;66771;52.434;17.056;2023-04-24T10:46:08;99413.44;;;20.47;54.05
77603;BME280;66771;52.434;17.056;2023-04-24T10:48:42;99412.33;;;20.30;53.81
77603;BME280;66771;52.434;17.056;2023-04-24T10:51:12;99404.39;;;20.08;53.95
77603;BME280;66771;52.434;17.056;2023-04-24T10:53:40;99411.91;;;20.17;53.54
77603;BME280;66771;52.434;17.056;2023-04-24T10:56:08;99406.25;;;20.06;52.70
77603;BME280;66771;52.434;17.056;2023-04-24T10:58:42;99405.20;;;20.21;53.08
77603;BME280;66771;52.434;17.056;2023-04-24T11:01:26;99409.54;;;20.50;53.53
77603;BME280;66771;52.434;17.056;2023-04-24T11:03:58;99409.66;;;20.77;53.18
77603;BME280;66771;52.434;17.056;2023-04-24T11:06:33;99404.50;;;21.24;53.07
77603;BME280;66771;52.434;17.056;2023-04-24T11:09:07;99400.08;;;21.66;51.62
77603;BME280;66771;52.434;17.056;2023-04-24T11:11:35;99403.98;;;21.71;50.61
77603;BME280;66771;52.434;17.056;2023-04-24T11:14:05;99409.63;;;21.66;51.38
77603;BME280;66771;52.434;17.056;2023-04-24T11:16:44;99408.95;;;21.66;50.21
77603;BME280;66771;52.434;17.056;2023-04-24T11:27:13;99426.27;;;20.65;50.84
77603;BME280;66771;52.434;17.056;2023-04-24T11:30:07;99428.38;;;20.45;50.72
77603;BME280;66771;52.434;17.056;2023-04-24T11:32:37;99427.61;;;20.61;52.68
77603;BME280;66771;52.434;17.056;2023-04-24T11:35:17;99423.77;;;20.80;53.23
77603;BME280;66771;52.434;17.056;2023-04-24T11:37:49;99434.38;;;20.75;51.20
77603;BME280;66771;52.434;17.056;2023-04-24T11:40:18;99434.02;;;20.50;51.95
77603;BME280;66771;52.434;17.056;2023-04-24T11:42:47;99435.83;;;20.49;52.45
77603;BME280;66771;52.434;17.056;2023-04-24T11:45:21;99434.77;;;20.66;53.50
77603;BME280;66771;52.434;17.056;2023-04-24T11:47:49;99434.30;;;20.90;52.31
77603;BME280;66771;52.434;17.056;2023-04-24T11:50:18;99434.89;;;20.94;52.00
77603;BME280;66771;52.434;17.056;2023-04-24T11:52:49;99435.02;;;20.92;50.81
77603;BME280;66771;52.434;17.056;2023-04-24T11:57:43;99434.19;;;20.87;51.09
77603;BME280;66771;52.434;17.056;2023-04-24T12:00:19;99433.23;;;20.77;49.97
77603;BME280;66771;52.434;17.056;2023-04-24T12:02:47;99435.33;;;20.43;49.89
77603;BME280;66771;52.434;17.056;2023-04-24T12:05:27;99435.03;;;20.14;50.46
77603;BME280;66771;52.434;17.056;2023-04-24T12:07:54;99428.52;;;19.89;51.29
77603;BME280;66771;52.434;17.056;2023-04-24T12:10:26;99433.11;;;19.75;51.78
77603;BME280;66771;52.434;17.056;2023-04-24T12:12:55;99427.54;;;19.52;51.59
77603;BME280;66771;52.434;17.056;2023-04-24T12:15:23;99429.66;;;19.28;52.45
77603;BME280;66771;52.434;17.056;2023-04-24T12:17:52;99424.68;;;18.95;52.00
77603;BME280;66771;52.434;17.056;2023-04-24T12:20:24;99431.07;;;18.69;52.69
77603;BME280;66771;52.434;17.056;2023-04-24T12:22:58;99427.66;;;18.50;53.43
77603;BME280;66771;52.434;17.056;2023-04-24T12:25:31;99424.44;;;18.33;53.77
77603;BME280;66771;52.434;17.056;2023-04-24T12:30:34;99415.65;;;18.01;54.57
77603;BME280;66771;52.434;17.056;2023-04-24T12:33:02;99404.27;;;17.79;56.05
77603;BME280;66771;52.434;17.056;2023-04-24T12:35:32;99414.23;;;17.57;55.62
77603;BME280;66771;52.434;17.056;2023-04-24T12:38:10;99417.06;;;17.32;56.69
77603;BME280;66771;52.434;17.056;2023-04-24T12:40:39;99412.95;;;17.14;57.59
77603;BME280;66771;52.434;17.056;2023-04-24T12:43:14;99402.68;;;17.04;57.39
77603;BME280;66771;52.434;17.056;2023-04-24T12:45:41;99382.71;;;17.00;57.93
77603;BME280;66771;52.434;17.056;2023-04-24T12:48:08;99381.73;;;17.00;58.39
77603;BME280;66771;52.434;17.056;2023-04-24T12:50:35;99383.70;;;17.02;58.68
77603;BME280;66771;52.434;17.056;2023-04-24T12:53:02;99389.43;;;17.07;58.56
77603;BME280;66771;52.434;17.056;2023-04-24T12:55:31;99399.94;;;17.16;58.45
77603;BME280;66771;52.434;17.056;2023-04-24T12:57:58;99400.81;;;17.31;58.37
77603;BME280;66771;52.434;17.056;2023-04-24T13:00:25;99400.63;;;17.53;58.22
77603;BME280;66771;52.434;17.056;2023-04-24T13:02:52;99397.92;;;17.74;58.09
77603;BME280;66771;52.434;17.056;2023-04-24T13:05:19;99391.98;;;18.05;58.31
77603;BME280;66771;52.434;17.056;2023-04-24T13:07:46;99390.21;;;18.38;57.83
77603;BME280;66771;52.434;17.056;2023-04-24T13:10:12;99385.28;;;18.63;57.22
77603;BME280;66771;52.434;17.056;2023-04-24T13:12:40;99387.02;;;18.71;56.38
77603;BME280;66771;52.434;17.056;2023-04-24T13:15:07;99388.05;;;18.68;55.92
77603;BME280;66771;52.434;17.056;2023-04-24T13:17:34;99392.57;;;18.59;55.28